Portada
METAR-TAF:

METAR-TAF

Aeroports :

Natal, Rio Grande do Norte, Brasil

latitud: 05-55S, longitud: 035-15W, altitud: 52 m

Observació

L'informe es va fer fa 1 hora i 6 minuts, a les 18:00 UTC
Vent 16 kt del Est/Sud-Est
Temperatura 29°C
Humitat 62%
Pressió 1009 hPa
Visibilitat 10 km o més
Núvols disperses a una alçada de 3000 ft

METAR: SBNT 211800Z 11016KT 9999 SCT030 29/21 Q1009

Hora: 16:06 (19:06 UTC)

Pronòstic

L'informe es va fer fa 3 hores i 6 minuts, a les 16:00 UTC
Pronòstic vàlid del 21 a les 18 UTC al 22 a les 06 UTC
Vent 20 kt del Est/Sud-Est
Visibilitat 10 km o més
Escasses núvols a una alçada de 4000 ft
Evolucionant progressivament
l' 21 a les 22 UTC al 21 a les 24 UTC
Vent 8 kt del Sud/Sud-Est

TAF: SBNT 211600Z 2118/2206 12020KT 9999 FEW040 TX30/2118Z TN25/2206Z BECMG 2122/2124 15008KT RMK PEH

Observacions i pronòstics meteorològics de més de 4000 aeroports (METAR i TAF).

Les estacions disponibles són els punts grocs i vermells al mapa.

Posi el ratolí al punt desitjat per veure el nom de l'estació.

Feu clic per veure les observacions i els pronòstics meteorològics.

Per canviar el mapa: feu clic els botons verds amb una creu de color negre per apropar; al botó verd amb un guió per allunyar la imatge; o en les fletxes verdes per a mapes adjacents.


METAR-TAF: